Merrill, IA

12:25 PM CDT on July 30, 2014 (GMT -0500)
Le Mars Municipal (KLRJ) Elev 1198 ft | 42.78 °N, 96.19 °W | Change Station

Current weather conditions updated 10 minutes ago

Scattered Clouds
Scattered Clouds
75 °F
Feels Like 75 °F
N
0
Wind Variable Wind from North

Today is forecast to be nearly the same temperature as yesterday.

Today
High -- | Low -- °F
--% Chance of Precip.
Yesterday
High -- | Low -- °F
Precip. -- in
6:14 AM 8:47 PM
Waxing Crescent, 12% visible
Pressure 30.16 in
Visibility 10.0 miles
Clouds Scattered Clouds 5000 ft
Dew Point 54 °F
Humidity 47%
Rainfall 0.00 in
Snow Depth Not available.
UV 8 out of 12
Pollen 5.70 out of 12
Air Quality Not available.
Flu Activity Not available.
METAR KLRJ 301715Z AUTO 00000KT 10SM SCT050 24/12 A3016 RMK AO2

More Conditions Fewer Conditions

Pressure 30.16 in
Visibility 10.0 miles
Clouds Scattered Clouds 5000 ft
Dew Point 54 °F
Humidity 47%
Rainfall 0.00 in
Snow Depth Not available.
UV 8 out of 12
Pollen 5.70 out of 12
Air Quality Not available.
Flu Activity Not available.
METAR KLRJ 301715Z AUTO 00000KT 10SM SCT050 24/12 A3016 RMK AO2

More Conditions Fewer Conditions

10-Day Weather Forecast

Almanac

Astronomy

Jul. 30, 2014 Rise Set
Actual Time 6:14 AM CDT 8:47 PM CDT
Civil Twilight 5:42 AM CDT 9:19 PM CDT
Nautical Twilight 5:01 AM CDT 9:59 PM CDT
Astronomical Twilight 4:16 AM CDT 10:45 PM CDT
Moon 9:53 AM CDT 10:23 PM CDT
Length of Visible Light 15h 37m
Length of Day
14h 33m
Tomorrow will be 2m 10s shorter.
Waxing Crescent, 12% of the Moon is Illuminated
Today
Waxing Crescent
Aug 3
First Quarter
Aug 10
Full
Aug 17
Last Quarter
Aug 25
New

Today's Extremes

State Highs State Lows

Community

WunderPhotos

Upload Photos

1,739,138 photos uploaded!

Nearby

Snow Depth

Station Depth Elevation
No new snow has been reported.

Earthquake Activity

City Distance Mag. Time & Date
No recent earthquake activity has been reported nearby.
Minimum magnitude displayed is 2.5.

Coastal Water Temperatures

Place Temperature
No Stations Reporting

Nearby Weather Stations

Station Location Temp. Heat Index Dew Point Humidity Wind Precip. Elev Updated Type
SSW Union, Kingsley, IA 72.7 °F 77 °F 54 °F 52% NE  at  1.0 mph 0.00 in / hr 1368 ft 12:20 PM CDT Normal
MesoWest CARNES , Oyens, IA 71 °F - - - North  at  - 0.00 in / hr 1250 ft 11:25 AM CDT MADIS
Northside Jones House, Sioux City, IA 78.0 °F 79 °F 58 °F 50% NNW  at  0.0 mph 0.00 in / hr 1253 ft 12:14 PM CDT Normal
McCook Lake SD, McCook Lake, SD 75.5 °F 78 °F 57 °F 52% WSW  at  1.0 mph 0.00 in / hr 1114 ft 12:24 PM CDT Normal
Rural Elk Point, Elk Point, SD 78.4 °F 79 °F 55 °F 45% ENE  at  3.1 mph 0.00 in / hr 1119 ft 12:25 PM CDT Normal
Sioux Center, Sioux Center, IA 75.8 °F 78 °F 56 °F 51% NE  at  1.0 mph 0.00 in / hr 1411 ft 12:13 PM CDT Normal

Show More Stations Show Fewer Stations